Time;durP1;ratioP1;P1;durP2;ratioP2;P2;SDS_P1;SDS_P2;PMS_P1;PMS_P2;Temp;Humidity;BMP_temperature;BMP_pressure;BME280_temperature;BME280_humidity;BME280_pressure;Samples;Min_cycle;Max_cycle;Signal;HPM_P1;HPM_P2
2022/05/26 00:01:09;;;;;;;5.00;2.03;;;;;;;;;;5072327;28;20969;-52
2022/05/26 00:03:37;;;;;;;3.60;2.30;;;;;;;;;;5054287;28;20471;-51
2022/05/26 00:06:05;;;;;;;7.60;2.90;;;;;;;;;;5052717;28;20487;-52
2022/05/26 00:08:31;;;;;;;3.67;2.50;;;;;;;;;;5073840;28;20448;-51
2022/05/26 00:10:57;;;;;;;6.00;2.33;;;;;;;;;;5073525;28;20862;-53
2022/05/26 00:13:23;;;;;;;4.50;2.23;;;;;;;;;;5054368;28;20409;-51
2022/05/26 00:15:50;;;;;;;3.23;2.43;;;;;;;;;;5053901;28;20396;-53
2022/05/26 00:18:16;;;;;;;2.40;2.20;;;;;;;;;;5069672;28;20387;-55
2022/05/26 00:20:41;;;;;;;2.73;2.10;;;;;;;;;;5073747;28;20409;-52
2022/05/26 00:23:07;;;;;;;2.57;2.37;;;;;;;;;;5057321;28;20423;-55
2022/05/26 00:25:33;;;;;;;2.40;2.20;;;;;;;;;;5053778;28;20423;-51
2022/05/26 00:28:00;;;;;;;5.67;2.13;;;;;;;;;;5067204;28;20480;-51
2022/05/26 00:30:26;;;;;;;3.50;2.03;;;;;;;;;;5074039;28;20912;-51
2022/05/26 00:32:52;;;;;;;2.90;2.30;;;;;;;;;;5060641;28;20390;-51
2022/05/26 00:35:18;;;;;;;5.50;2.50;;;;;;;;;;5051892;28;20396;-51
2022/05/26 00:37:44;;;;;;;5.37;2.20;;;;;;;;;;5064994;28;20397;-52
2022/05/26 00:40:11;;;;;;;2.80;2.60;;;;;;;;;;5073452;28;20520;-51
2022/05/26 00:42:37;;;;;;;2.20;2.00;;;;;;;;;;5062652;28;21002;-53
2022/05/26 00:45:04;;;;;;;2.30;2.10;;;;;;;;;;5053348;28;20490;-55
2022/05/26 00:47:31;;;;;;;6.70;2.23;;;;;;;;;;5062499;28;20772;-51
2022/05/26 00:50:00;;;;;;;3.10;2.03;;;;;;;;;;5073277;28;20866;-52
2022/05/26 00:52:31;;;;;;;2.47;2.27;;;;;;;;;;5064256;28;20372;-55
2022/05/26 00:55:04;;;;;;;2.00;1.90;;;;;;;;;;5053142;28;20916;-51
2022/05/26 00:57:35;;;;;;;7.83;3.00;;;;;;;;;;5053214;28;20392;-54
2022/05/26 01:00:04;;;;;;;4.87;2.00;;;;;;;;;;5052545;28;20741;-53
2022/05/26 01:02:45;;;;;;;5.27;2.03;;;;;;;;;;5059739;28;20430;-52
2022/05/26 01:05:13;;;;;;;2.63;2.20;;;;;;;;;;5072842;28;20402;-55
2022/05/26 01:07:39;;;;;;;4.07;2.20;;;;;;;;;;5062125;28;20435;-55
2022/05/26 01:10:06;;;;;;;1.87;1.73;;;;;;;;;;5052818;28;20401;-54
2022/05/26 01:12:32;;;;;;;2.93;2.00;;;;;;;;;;5060693;28;20379;-54
2022/05/26 01:15:02;;;;;;;2.53;2.00;;;;;;;;;;5072487;28;20780;-54
2022/05/26 01:17:40;;;;;;;2.90;1.90;;;;;;;;;;5071159;28;20936;-54
2022/05/26 01:20:18;;;;;;;5.77;2.10;;;;;;;;;;5072709;28;20405;-55
2022/05/26 01:23:03;;;;;;;5.43;2.17;;;;;;;;;;5054769;28;20459;-55
2022/05/26 01:25:29;;;;;;;1.90;1.80;;;;;;;;;;5052466;28;20399;-54
2022/05/26 01:28:04;;;;;;;3.30;1.90;;;;;;;;;;5071424;28;20502;-55
2022/05/26 01:30:39;;;;;;;2.27;1.80;;;;;;;;;;5072540;28;20381;-55
2022/05/26 01:33:14;;;;;;;1.80;1.70;;;;;;;;;;5052021;28;20419;-55
2022/05/26 01:35:46;;;;;;;2.20;2.00;;;;;;;;;;5052179;28;20421;-55
2022/05/26 01:38:24;;;;;;;2.13;1.93;;;;;;;;;;5063873;28;20387;-55
2022/05/26 01:40:58;;;;;;;4.50;2.00;;;;;;;;;;5051702;28;20937;-55
2022/05/26 01:43:27;;;;;;;3.27;2.40;;;;;;;;;;5052423;28;20388;-54
2022/05/26 01:46:10;;;;;;;4.63;2.37;;;;;;;;;;5053244;28;20395;-55
2022/05/26 01:48:45;;;;;;;3.03;2.27;;;;;;;;;;5052300;28;20908;-55
2022/05/26 01:51:17;;;;;;;2.47;1.90;;;;;;;;;;5055091;28;20390;-55
2022/05/26 01:54:06;;;;;;;1.97;1.87;;;;;;;;;;5072133;28;20793;-55
2022/05/26 01:56:32;;;;;;;2.00;1.90;;;;;;;;;;5064990;28;20387;-55
2022/05/26 01:59:03;;;;;;;5.93;2.27;;;;;;;;;;5051998;28;20424;-56
2022/05/26 02:01:30;;;;;;;2.20;2.00;;;;;;;;;;5057075;28;20434;-55
2022/05/26 02:03:58;;;;;;;2.30;2.10;;;;;;;;;;5071992;28;20473;-54
2022/05/26 02:06:26;;;;;;;1.97;1.87;;;;;;;;;;5066272;28;20790;-55
2022/05/26 02:08:55;;;;;;;5.43;2.03;;;;;;;;;;5052401;28;20382;-55
2022/05/26 02:11:22;;;;;;;3.73;2.50;;;;;;;;;;5054402;28;20501;-55
2022/05/26 02:13:59;;;;;;;2.93;1.90;;;;;;;;;;5071796;28;20424;-54
2022/05/26 02:16:30;;;;;;;2.00;1.90;;;;;;;;;;5066255;28;20795;-54
2022/05/26 02:18:59;;;;;;;2.40;1.97;;;;;;;;;;5051694;28;20879;-55
2022/05/26 02:21:31;;;;;;;2.77;2.20;;;;;;;;;;5055576;28;20455;-55
2022/05/26 02:24:13;;;;;;;6.00;2.30;;;;;;;;;;5071617;28;20902;-52
2022/05/26 02:26:39;;;;;;;2.90;2.00;;;;;;;;;;5062863;28;20421;-52
2022/05/26 02:31:51;;;;;;;8.53;2.37;;;;;;;;;;5051082;28;20387;-52
2022/05/26 02:34:19;;;;;;;6.00;2.30;;;;;;;;;;5050579;28;20407;-54
2022/05/26 02:36:45;;;;;;;2.47;2.27;;;;;;;;;;5058699;28;20859;-52
2022/05/26 02:39:11;;;;;;;2.70;2.00;;;;;;;;;;5072004;28;20400;-53
2022/05/26 02:41:38;;;;;;;6.27;2.50;;;;;;;;;;5064626;28;20467;-52
2022/05/26 02:44:05;;;;;;;5.33;2.40;;;;;;;;;;5051546;28;20371;-53
2022/05/26 02:46:49;;;;;;;6.17;2.40;;;;;;;;;;5056420;28;21003;-53
2022/05/26 02:49:41;;;;;;;2.67;2.47;;;;;;;;;;5071582;28;20431;-52
2022/05/26 02:52:16;;;;;;;4.17;2.00;;;;;;;;;;5057905;28;20503;-52
2022/05/26 02:54:53;;;;;;;5.30;2.70;;;;;;;;;;5051388;28;20416;-53
2022/05/26 02:57:25;;;;;;;13.23;2.90;;;;;;;;;;5060002;28;20405;-54
2022/05/26 03:00:00;;;;;;;3.83;2.27;;;;;;;;;;5071590;28;20423;-52
2022/05/26 03:02:30;;;;;;;5.77;2.40;;;;;;;;;;5050979;28;20971;-52
2022/05/26 03:05:03;;;;;;;4.47;2.87;;;;;;;;;;5051310;28;20400;-53
2022/05/26 03:07:31;;;;;;;7.87;2.73;;;;;;;;;;5051175;28;20820;-54
2022/05/26 03:09:57;;;;;;;2.90;2.43;;;;;;;;;;5051430;28;20424;-52
2022/05/26 03:12:25;;;;;;;2.60;2.20;;;;;;;;;;5050782;28;20780;-54
2022/05/26 03:14:51;;;;;;;3.37;2.33;;;;;;;;;;5051297;28;20836;-52
2022/05/26 03:17:18;;;;;;;3.73;2.77;;;;;;;;;;5068762;28;20416;-52
2022/05/26 03:19:44;;;;;;;3.10;2.37;;;;;;;;;;5071724;28;20375;-54
2022/05/26 03:22:10;;;;;;;2.17;2.03;;;;;;;;;;5054276;28;20917;-52
2022/05/26 03:24:36;;;;;;;4.07;2.57;;;;;;;;;;5054920;28;20446;-52
2022/05/26 03:27:02;;;;;;;11.73;2.93;;;;;;;;;;5069979;28;20512;-52
2022/05/26 03:29:28;;;;;;;2.30;2.20;;;;;;;;;;5074832;28;20408;-52
2022/05/26 03:31:54;;;;;;;2.53;2.30;;;;;;;;;;5059282;28;20413;-52
2022/05/26 03:42:34;;;;;;;5.20;3.40;;;;;;;;;;5054603;28;20457;-53
2022/05/26 03:45:02;;;;;;;2.50;2.30;;;;;;;;;;5054415;28;20424;-53
2022/05/26 03:47:28;;;;;;;2.53;2.33;;;;;;;;;;5072840;28;20470;-54
2022/05/26 03:49:54;;;;;;;3.33;2.67;;;;;;;;;;5074455;28;20403;-52
2022/05/26 03:52:20;;;;;;;3.13;2.53;;;;;;;;;;5070661;28;20470;-53
2022/05/26 03:54:46;;;;;;;5.03;3.13;;;;;;;;;;5074330;28;20450;-52
2022/05/26 03:57:12;;;;;;;3.67;2.77;;;;;;;;;;5057974;28;20486;-53
2022/05/26 03:59:42;;;;;;;3.00;2.70;;;;;;;;;;5054168;28;20920;-53
2022/05/26 04:02:07;;;;;;;5.93;2.80;;;;;;;;;;5069271;28;20919;-54
2022/05/26 04:04:34;;;;;;;5.50;3.10;;;;;;;;;;5074168;28;20422;-53
2022/05/26 04:07:00;;;;;;;3.40;3.10;;;;;;;;;;5059645;28;20465;-55
2022/05/26 04:09:26;;;;;;;3.40;3.10;;;;;;;;;;5054303;28;20393;-53
2022/05/26 04:11:53;;;;;;;3.53;2.87;;;;;;;;;;5054254;28;20462;-54
2022/05/26 04:14:19;;;;;;;4.60;3.00;;;;;;;;;;5054064;28;20458;-52
2022/05/26 04:16:45;;;;;;;6.30;3.40;;;;;;;;;;5065961;28;20394;-52
2022/05/26 04:19:11;;;;;;;6.50;3.60;;;;;;;;;;5073911;28;20385;-53
2022/05/26 04:22:14;;;;;;;5.33;4.07;;;;;;;;;;5073605;28;20432;-53
2022/05/26 04:24:23;;;;;;;5.60;3.47;;;;;;;;;;5073711;28;20788;-54
2022/05/26 04:26:49;;;;;;;5.90;4.33;;;;;;;;;;5061260;28;20970;-52
2022/05/26 04:29:15;;;;;;;4.37;3.43;;;;;;;;;;5053976;28;20895;-52
2022/05/26 04:31:41;;;;;;;4.40;3.77;;;;;;;;;;5064204;28;20414;-53
2022/05/26 04:34:07;;;;;;;4.10;3.70;;;;;;;;;;5072651;28;20394;-51
2022/05/26 04:36:33;;;;;;;4.97;4.50;;;;;;;;;;5063701;28;20470;-51
2022/05/26 04:38:58;;;;;;;4.90;4.23;;;;;;;;;;5053555;28;20544;-52
2022/05/26 04:41:24;;;;;;;5.47;4.70;;;;;;;;;;5061526;28;20974;-53
2022/05/26 04:43:51;;;;;;;5.00;4.03;;;;;;;;;;5073709;28;20379;-54
2022/05/26 04:46:17;;;;;;;5.43;3.90;;;;;;;;;;5065967;28;20413;-52
2022/05/26 04:48:44;;;;;;;5.17;4.30;;;;;;;;;;5053361;28;20903;-52
2022/05/26 04:51:10;;;;;;;7.70;4.93;;;;;;;;;;5052730;28;20428;-52
2022/05/26 04:53:36;;;;;;;5.40;4.23;;;;;;;;;;5053510;28;20802;-52
2022/05/26 04:56:02;;;;;;;7.40;4.47;;;;;;;;;;5058037;28;20409;-52
2022/05/26 04:58:28;;;;;;;5.43;4.90;;;;;;;;;;5073197;28;20937;-52
2022/05/26 05:00:54;;;;;;;5.60;5.10;;;;;;;;;;5068354;28;20448;-53
2022/05/26 05:03:20;;;;;;;8.30;5.37;;;;;;;;;;5053108;28;20384;-54
2022/05/26 05:05:47;;;;;;;6.40;5.10;;;;;;;;;;5055135;28;20443;-52
2022/05/26 05:08:13;;;;;;;6.13;5.20;;;;;;;;;;5072938;28;20424;-52
2022/05/26 05:10:39;;;;;;;8.43;5.87;;;;;;;;;;5072026;28;20487;-52
2022/05/26 05:13:05;;;;;;;6.63;5.93;;;;;;;;;;5052425;28;20454;-52
2022/05/26 05:15:38;;;;;;;6.63;6.03;;;;;;;;;;5052747;28;20400;-52
2022/05/26 05:18:04;;;;;;;9.73;7.10;;;;;;;;;;5052864;28;20423;-52
2022/05/26 05:20:30;;;;;;;15.40;8.53;;;;;;;;;;5053152;28;20383;-52
2022/05/26 05:23:00;;;;;;;11.53;9.30;;;;;;;;;;5070565;28;20451;-52
2022/05/26 05:25:28;;;;;;;16.83;9.10;;;;;;;;;;5072534;28;20490;-55
2022/05/26 05:28:00;;;;;;;11.03;9.30;;;;;;;;;;5052214;28;20446;-52
2022/05/26 05:30:32;;;;;;;10.83;8.80;;;;;;;;;;5052145;28;20506;-53
2022/05/26 05:33:04;;;;;;;18.67;10.60;;;;;;;;;;5071160;28;20388;-52
2022/05/26 05:35:34;;;;;;;18.50;9.90;;;;;;;;;;5072439;28;20427;-52
2022/05/26 05:38:01;;;;;;;12.00;10.00;;;;;;;;;;5052632;28;20455;-54
2022/05/26 05:40:27;;;;;;;13.03;9.40;;;;;;;;;;5052681;28;20455;-52
2022/05/26 05:42:53;;;;;;;10.00;8.33;;;;;;;;;;5064387;28;20383;-52
2022/05/26 05:45:19;;;;;;;19.37;10.83;;;;;;;;;;5052108;28;20429;-51
2022/05/26 05:47:45;;;;;;;23.13;10.30;;;;;;;;;;5052192;28;20452;-53
2022/05/26 05:50:11;;;;;;;14.47;10.93;;;;;;;;;;5068042;28;20402;-52
2022/05/26 05:52:37;;;;;;;14.53;11.27;;;;;;;;;;5067666;28;20431;-52
2022/05/26 05:55:04;;;;;;;14.70;10.13;;;;;;;;;;5051867;28;20498;-51
2022/05/26 05:57:30;;;;;;;19.87;10.80;;;;;;;;;;5054174;28;20904;-52
2022/05/26 05:59:56;;;;;;;19.27;10.43;;;;;;;;;;5072098;28;20454;-52
2022/05/26 06:02:22;;;;;;;12.57;9.70;;;;;;;;;;5069627;28;20475;-54
2022/05/26 06:04:48;;;;;;;13.97;10.33;;;;;;;;;;5052020;28;20439;-52
2022/05/26 06:07:15;;;;;;;18.20;10.63;;;;;;;;;;5051880;28;20443;-53
2022/05/26 06:09:42;;;;;;;17.63;10.73;;;;;;;;;;5071852;28;20416;-52
2022/05/26 06:12:09;;;;;;;15.43;10.40;;;;;;;;;;5071340;28;20406;-51
2022/05/26 06:14:36;;;;;;;18.30;10.40;;;;;;;;;;5052119;28;20458;-52
2022/05/26 06:17:02;;;;;;;13.50;10.30;;;;;;;;;;5051773;28;20416;-51
2022/05/26 06:19:28;;;;;;;11.60;10.30;;;;;;;;;;5069515;28;20416;-52
2022/05/26 06:21:53;;;;;;;17.70;11.03;;;;;;;;;;5071168;28;20796;-52
2022/05/26 06:24:23;;;;;;;17.07;10.90;;;;;;;;;;5070086;28;20387;-52
2022/05/26 06:26:49;;;;;;;16.13;10.67;;;;;;;;;;5071814;28;20448;-52
2022/05/26 06:37:30;;;;;;;19.93;10.70;;;;;;;;;;5071040;28;20446;-55
2022/05/26 06:39:56;;;;;;;16.33;10.77;;;;;;;;;;5052544;28;20406;-55
2022/05/26 06:42:26;;;;;;;17.63;10.63;;;;;;;;;;5050926;28;20387;-56
2022/05/26 06:44:52;;;;;;;18.47;12.00;;;;;;;;;;5070614;28;20952;-55
2022/05/26 06:47:20;;;;;;;17.33;12.60;;;;;;;;;;5071548;28;20468;-56
2022/05/26 06:49:46;;;;;;;27.00;12.57;;;;;;;;;;5069856;28;20411;-56
2022/05/26 06:52:13;;;;;;;18.07;11.30;;;;;;;;;;5070994;28;20407;-55
2022/05/26 06:54:41;;;;;;;19.30;11.93;;;;;;;;;;5068803;28;20471;-56
2022/05/26 06:57:07;;;;;;;22.10;12.03;;;;;;;;;;5052456;28;20392;-55
2022/05/26 06:59:34;;;;;;;23.40;13.00;;;;;;;;;;5056540;28;20454;-55
2022/05/26 07:02:00;;;;;;;17.87;12.70;;;;;;;;;;5054853;28;20409;-55
2022/05/26 07:04:26;;;;;;;16.57;11.93;;;;;;;;;;5069219;28;20418;-56
2022/05/26 07:06:53;;;;;;;32.97;13.00;;;;;;;;;;5075255;28;20563;-55
2022/05/26 07:09:19;;;;;;;22.77;13.77;;;;;;;;;;5062260;28;20880;-56
2022/05/26 07:11:46;;;;;;;22.33;13.00;;;;;;;;;;5054841;28;20373;-56
2022/05/26 07:14:12;;;;;;;22.50;13.57;;;;;;;;;;5056120;28;20384;-55
2022/05/26 07:16:38;;;;;;;23.93;13.73;;;;;;;;;;5054280;28;20436;-52
2022/05/26 07:19:04;;;;;;;20.90;13.80;;;;;;;;;;5064702;28;20419;-52
2022/05/26 07:21:31;;;;;;;27.77;13.03;;;;;;;;;;5074163;28;20404;-52
2022/05/26 07:23:56;;;;;;;17.50;12.47;;;;;;;;;;5072861;28;20444;-55
2022/05/26 07:26:24;;;;;;;19.87;12.87;;;;;;;;;;5074733;28;20431;-54
2022/05/26 07:28:53;;;;;;;28.10;16.27;;;;;;;;;;5066608;28;20384;-55
2022/05/26 07:31:19;;;;;;;20.80;13.00;;;;;;;;;;5054320;28;20411;-55
2022/05/26 07:33:47;;;;;;;23.77;13.70;;;;;;;;;;5061578;28;20408;-54
2022/05/26 07:41:44;;;;;;;19.77;13.90;;;;;;;;;;5054358;28;20469;-55
2022/05/26 07:44:10;;;;;;;16.23;11.37;;;;;;;;;;5065030;28;20403;-55
2022/05/26 07:46:36;;;;;;;22.83;12.80;;;;;;;;;;5074497;28;20801;-55
2022/05/26 07:49:05;;;;;;;22.73;11.83;;;;;;;;;;5065950;28;20389;-54
2022/05/26 07:51:31;;;;;;;15.07;11.73;;;;;;;;;;5066040;28;20386;-51
2022/05/26 07:54:00;;;;;;;21.23;13.13;;;;;;;;;;5054113;28;20469;-51
2022/05/26 07:56:28;;;;;;;18.60;12.20;;;;;;;;;;5054165;28;20421;-54
2022/05/26 07:58:54;;;;;;;22.60;13.17;;;;;;;;;;5074121;28;20783;-52
2022/05/26 08:01:20;;;;;;;22.73;12.97;;;;;;;;;;5073334;28;20385;-54
2022/05/26 08:03:46;;;;;;;21.40;12.73;;;;;;;;;;5054616;28;20447;-51
2022/05/26 08:06:13;;;;;;;14.60;11.23;;;;;;;;;;5053913;28;20482;-51
2022/05/26 08:08:39;;;;;;;11.40;9.70;;;;;;;;;;5061180;28;20425;-55
2022/05/26 08:11:06;;;;;;;15.10;9.90;;;;;;;;;;5067224;28;20420;-55
2022/05/26 08:13:32;;;;;;;13.70;9.80;;;;;;;;;;5072888;28;20401;-56
2022/05/26 08:15:58;;;;;;;16.63;10.90;;;;;;;;;;5059058;28;20807;-56
2022/05/26 08:18:25;;;;;;;15.20;11.17;;;;;;;;;;5065150;28;20496;-56
2022/05/26 08:20:51;;;;;;;20.17;12.63;;;;;;;;;;5071027;28;20442;-55
2022/05/26 08:23:17;;;;;;;14.77;12.87;;;;;;;;;;5054105;28;20814;-55
2022/05/26 08:25:43;;;;;;;21.37;13.83;;;;;;;;;;5055826;28;20448;-55
2022/05/26 08:28:09;;;;;;;18.50;12.10;;;;;;;;;;5062258;28;20861;-55
2022/05/26 08:30:35;;;;;;;14.80;11.77;;;;;;;;;;5073212;28;20815;-55
2022/05/26 08:33:02;;;;;;;17.90;10.40;;;;;;;;;;5066964;28;20417;-55
2022/05/26 08:35:28;;;;;;;12.17;11.03;;;;;;;;;;5054297;28;20441;-55
2022/05/26 08:37:54;;;;;;;15.13;10.70;;;;;;;;;;5054283;28;20416;-52
2022/05/26 08:40:27;;;;;;;13.43;10.03;;;;;;;;;;5061927;28;20982;-52
2022/05/26 08:42:53;;;;;;;14.43;9.20;;;;;;;;;;5053321;28;20947;-53
2022/05/26 08:45:19;;;;;;;9.43;8.53;;;;;;;;;;5054192;28;20438;-53
2022/05/26 08:47:46;;;;;;;11.63;9.90;;;;;;;;;;5053812;28;20476;-53
2022/05/26 08:50:24;;;;;;;13.07;8.90;;;;;;;;;;5052918;28;20443;-56
2022/05/26 08:52:57;;;;;;;12.20;9.67;;;;;;;;;;5053354;28;20842;-54
2022/05/26 08:55:32;;;;;;;11.53;9.17;;;;;;;;;;5053808;28;20453;-53
2022/05/26 08:58:04;;;;;;;14.47;9.90;;;;;;;;;;5068156;28;20780;-53
2022/05/26 09:00:30;;;;;;;14.47;9.03;;;;;;;;;;5062127;28;20447;-53
2022/05/26 09:02:59;;;;;;;11.03;8.60;;;;;;;;;;5059277;28;20471;-53
2022/05/26 09:05:25;;;;;;;11.40;9.37;;;;;;;;;;5064399;28;20506;-51
2022/05/26 09:13:38;;;;;;;15.70;7.80;;;;;;;;;;5052977;28;20447;-53
2022/05/26 09:16:06;;;;;;;12.80;7.80;;;;;;;;;;5052752;28;20437;-52
2022/05/26 09:18:32;;;;;;;14.67;8.83;;;;;;;;;;5052474;28;20431;-54
2022/05/26 09:21:11;;;;;;;8.37;6.90;;;;;;;;;;5051731;28;20847;-55
2022/05/26 09:23:42;;;;;;;12.70;6.63;;;;;;;;;;5064040;28;20400;-55
2022/05/26 09:26:11;;;;;;;7.10;6.17;;;;;;;;;;5072430;28;20456;-54
2022/05/26 09:28:49;;;;;;;9.40;5.67;;;;;;;;;;5071771;28;20958;-55
2022/05/26 09:31:41;;;;;;;6.40;5.80;;;;;;;;;;5051674;28;20400;-52
2022/05/26 09:34:16;;;;;;;4.90;4.40;;;;;;;;;;5048634;28;20500;-52
2022/05/26 09:36:50;;;;;;;9.33;6.60;;;;;;;;;;5064248;28;20412;-52
2022/05/26 09:39:20;;;;;;;7.10;5.30;;;;;;;;;;5068777;28;20412;-52
2022/05/26 09:41:47;;;;;;;5.20;4.60;;;;;;;;;;5052580;28;20416;-54
2022/05/26 09:44:25;;;;;;;7.93;5.30;;;;;;;;;;5062661;28;20435;-52
2022/05/26 09:46:53;;;;;;;6.60;4.87;;;;;;;;;;5051998;28;20540;-53
2022/05/26 09:49:21;;;;;;;5.97;5.37;;;;;;;;;;5054219;28;20425;-53
2022/05/26 09:51:47;;;;;;;7.17;5.40;;;;;;;;;;5061151;28;20409;-51
2022/05/26 09:54:27;;;;;;;6.73;5.27;;;;;;;;;;5051650;28;20436;-52
2022/05/26 09:56:53;;;;;;;9.03;5.60;;;;;;;;;;5061565;28;20452;-53
2022/05/26 09:59:30;;;;;;;6.90;6.23;;;;;;;;;;5069869;28;20455;-52
2022/05/26 10:02:02;;;;;;;12.03;5.90;;;;;;;;;;5051010;28;20421;-51
2022/05/26 10:04:31;;;;;;;5.10;4.57;;;;;;;;;;5053247;28;20417;-53
2022/05/26 10:06:57;;;;;;;11.00;5.40;;;;;;;;;;5071641;28;20474;-52
2022/05/26 10:09:35;;;;;;;5.03;4.57;;;;;;;;;;5070135;28;20916;-52
2022/05/26 10:12:11;;;;;;;6.83;5.00;;;;;;;;;;5051419;28;20423;-51
2022/05/26 10:14:40;;;;;;;7.70;4.80;;;;;;;;;;5063069;28;20428;-52
2022/05/26 10:17:10;;;;;;;7.70;4.03;;;;;;;;;;5061684;28;20451;-55
2022/05/26 10:19:39;;;;;;;6.37;4.50;;;;;;;;;;5054434;28;20435;-52
2022/05/26 10:22:08;;;;;;;6.73;4.90;;;;;;;;;;5066756;28;20420;-52
2022/05/26 10:24:46;;;;;;;7.67;4.30;;;;;;;;;;5053634;28;20526;-53
2022/05/26 10:27:31;;;;;;;5.60;4.27;;;;;;;;;;5050820;28;20453;-53
2022/05/26 10:29:57;;;;;;;3.93;3.50;;;;;;;;;;5056306;28;20473;-53
2022/05/26 10:32:32;;;;;;;7.67;4.10;;;;;;;;;;5068917;28;20826;-52
2022/05/26 10:34:58;;;;;;;4.93;3.93;;;;;;;;;;5071319;28;20432;-53
2022/05/26 10:37:47;;;;;;;8.63;3.90;;;;;;;;;;5069864;28;20412;-56
2022/05/26 10:40:16;;;;;;;3.70;3.10;;;;;;;;;;5061723;28;20657;-57
2022/05/26 10:42:48;;;;;;;4.93;3.20;;;;;;;;;;5056556;28;20453;-56
2022/05/26 10:45:26;;;;;;;5.00;3.10;;;;;;;;;;5067576;28;20501;-56
2022/05/26 10:47:51;;;;;;;4.13;3.73;;;;;;;;;;5051620;28;20448;-57
2022/05/26 10:50:36;;;;;;;4.50;3.00;;;;;;;;;;5055196;28;20418;-56
2022/05/26 10:53:07;;;;;;;6.33;3.70;;;;;;;;;;5063141;28;20432;-57
2022/05/26 10:55:38;;;;;;;4.60;3.13;;;;;;;;;;5060488;28;20433;-56
2022/05/26 10:58:08;;;;;;;3.40;3.10;;;;;;;;;;5071406;28;20393;-56
2022/05/26 11:00:34;;;;;;;4.93;3.73;;;;;;;;;;5053026;28;20416;-56
2022/05/26 11:03:07;;;;;;;9.23;4.60;;;;;;;;;;5070595;28;20410;-56
2022/05/26 11:05:33;;;;;;;4.07;3.23;;;;;;;;;;5069009;28;20430;-55
2022/05/26 11:08:02;;;;;;;4.37;3.17;;;;;;;;;;5067565;28;20479;-56
2022/05/26 11:10:44;;;;;;;5.03;3.30;;;;;;;;;;5051039;28;20462;-55
2022/05/26 11:13:37;;;;;;;4.50;3.00;;;;;;;;;;5068442;28;20412;-55
2022/05/26 11:18:53;;;;;;;3.50;2.80;;;;;;;;;;5062699;28;20427;-52
2022/05/26 11:21:21;;;;;;;4.57;3.17;;;;;;;;;;5065474;28;20414;-52
2022/05/26 11:23:47;;;;;;;3.53;2.80;;;;;;;;;;5055685;28;20499;-52
2022/05/26 11:26:25;;;;;;;4.00;2.60;;;;;;;;;;5068431;28;20806;-52
2022/05/26 11:28:57;;;;;;;3.83;2.83;;;;;;;;;;5050941;28;20482;-53
2022/05/26 11:37:18;;;;;;;4.30;2.60;;;;;;;;;;5071160;28;20438;-55
2022/05/26 11:39:45;;;;;;;2.47;2.20;;;;;;;;;;5069325;28;20452;-55
2022/05/26 11:42:13;;;;;;;3.53;2.43;;;;;;;;;;5069776;28;20488;-53
2022/05/26 11:44:41;;;;;;;6.60;3.20;;;;;;;;;;5065443;28;21132;-53
2022/05/26 11:47:26;;;;;;;3.10;2.80;;;;;;;;;;5067834;28;20547;-53
2022/05/26 11:49:52;;;;;;;6.03;2.90;;;;;;;;;;5072874;28;20412;-53
2022/05/26 11:52:26;;;;;;;4.70;2.90;;;;;;;;;;5059341;28;20412;-54
2022/05/26 11:55:02;;;;;;;4.00;2.90;;;;;;;;;;5063099;28;21136;-54
2022/05/26 11:57:43;;;;;;;4.77;3.17;;;;;;;;;;5072853;28;20418;-53
2022/05/26 12:00:16;;;;;;;4.63;2.87;;;;;;;;;;5071907;28;20420;-55
2022/05/26 12:02:43;;;;;;;4.03;3.40;;;;;;;;;;5065892;28;20416;-55
2022/05/26 12:05:35;;;;;;;4.30;3.47;;;;;;;;;;5054179;28;20410;-54
2022/05/26 12:08:03;;;;;;;4.43;3.33;;;;;;;;;;5065312;28;20459;-55
2022/05/26 12:10:30;;;;;;;4.60;3.63;;;;;;;;;;5074387;28;20495;-53
2022/05/26 12:13:15;;;;;;;6.00;3.90;;;;;;;;;;5072760;28;20413;-55
2022/05/26 12:16:01;;;;;;;9.83;4.43;;;;;;;;;;5058110;28;20468;-56
2022/05/26 12:18:36;;;;;;;5.67;3.77;;;;;;;;;;5064506;28;20415;-55
2022/05/26 12:21:13;;;;;;;5.50;3.20;;;;;;;;;;5071806;28;20419;-53
2022/05/26 12:23:42;;;;;;;5.00;3.47;;;;;;;;;;5056394;28;20416;-56
2022/05/26 12:26:28;;;;;;;4.80;4.27;;;;;;;;;;5069419;28;20796;-55
2022/05/26 12:28:55;;;;;;;3.37;3.03;;;;;;;;;;5056074;28;20429;-54
2022/05/26 12:31:21;;;;;;;3.40;3.20;;;;;;;;;;5055139;28;20409;-54
2022/05/26 12:33:50;;;;;;;6.27;4.27;;;;;;;;;;5073304;28;20744;-55
2022/05/26 12:39:27;;;;;;;9.20;3.87;;;;;;;;;;5492796;23;20490;-57
2022/05/26 12:42:19;;;;;;;3.90;3.23;;;;;;;;;;4977838;28;20424;-57
2022/05/26 12:44:56;;;;;;;3.70;2.53;;;;;;;;;;4988200;28;20436;-57
2022/05/26 12:47:25;;;;;;;3.27;2.83;;;;;;;;;;4974816;28;20534;-57
2022/05/26 12:49:51;;;;;;;3.50;2.53;;;;;;;;;;4973975;28;20560;-57
2022/05/26 12:52:19;;;;;;;2.80;2.60;;;;;;;;;;4974857;28;20441;-53
2022/05/26 12:54:51;;;;;;;4.53;2.80;;;;;;;;;;4972302;28;20417;-53
2022/05/26 12:57:20;;;;;;;5.13;2.73;;;;;;;;;;4974695;28;20829;-56
2022/05/26 12:59:46;;;;;;;7.10;3.10;;;;;;;;;;4979727;28;20451;-53
2022/05/26 13:02:13;;;;;;;5.43;3.50;;;;;;;;;;4979689;28;20431;-53
2022/05/26 13:04:39;;;;;;;4.07;3.37;;;;;;;;;;4974209;28;20425;-53
2022/05/26 13:07:06;;;;;;;5.03;3.13;;;;;;;;;;4974235;28;20462;-54
2022/05/26 13:09:39;;;;;;;5.37;3.43;;;;;;;;;;4973160;28;20620;-54
2022/05/26 13:12:06;;;;;;;4.60;3.47;;;;;;;;;;4972751;28;20419;-52
2022/05/26 13:14:32;;;;;;;3.20;2.77;;;;;;;;;;4974294;28;20464;-54
2022/05/26 13:17:01;;;;;;;3.40;2.97;;;;;;;;;;4967510;28;20553;-54
2022/05/26 13:19:27;;;;;;;7.17;3.20;;;;;;;;;;4971781;28;20581;-53
2022/05/26 13:21:54;;;;;;;5.40;2.73;;;;;;;;;;4973975;28;20416;-55
2022/05/26 13:24:23;;;;;;;6.40;2.93;;;;;;;;;;4939902;29;20425;-53
2022/05/26 13:26:53;;;;;;;3.00;2.80;;;;;;;;;;4954481;29;20868;-52
2022/05/26 13:29:19;;;;;;;6.80;3.30;;;;;;;;;;4954421;29;20448;-53
2022/05/26 13:34:32;;;;;;;3.77;2.80;;;;;;;;;;4973664;28;20783;-52
2022/05/26 13:37:03;;;;;;;3.50;2.80;;;;;;;;;;4973655;28;20853;-53
2022/05/26 13:39:29;;;;;;;3.13;2.73;;;;;;;;;;4973547;28;20492;-54
2022/05/26 13:41:56;;;;;;;3.33;2.80;;;;;;;;;;4973532;28;20434;-52
2022/05/26 13:44:30;;;;;;;5.23;2.77;;;;;;;;;;4973728;28;20411;-53
2022/05/26 13:46:57;;;;;;;6.60;3.00;;;;;;;;;;4973756;28;20966;-54
2022/05/26 13:49:32;;;;;;;2.53;2.33;;;;;;;;;;4973372;28;20476;-53
2022/05/26 13:51:59;;;;;;;5.27;2.50;;;;;;;;;;4973679;28;20404;-52
2022/05/26 13:54:27;;;;;;;3.60;3.30;;;;;;;;;;4973589;28;20415;-52
2022/05/26 13:56:54;;;;;;;3.90;2.70;;;;;;;;;;4973573;28;20419;-52
2022/05/26 13:59:21;;;;;;;4.93;2.70;;;;;;;;;;4973209;28;20772;-52
2022/05/26 14:01:50;;;;;;;6.03;2.70;;;;;;;;;;4973620;28;20680;-52
2022/05/26 14:04:29;;;;;;;3.47;2.40;;;;;;;;;;4973553;28;20764;-54
2022/05/26 14:06:56;;;;;;;7.00;2.40;;;;;;;;;;4973256;28;20814;-52
2022/05/26 14:09:30;;;;;;;4.83;3.00;;;;;;;;;;4972971;28;20431;-52
2022/05/26 14:12:04;;;;;;;5.33;3.50;;;;;;;;;;4973364;28;20832;-53
2022/05/26 14:14:51;;;;;;;7.33;3.27;;;;;;;;;;4973225;28;20404;-54
2022/05/26 14:17:46;;;;;;;4.73;2.97;;;;;;;;;;4973057;28;20424;-55
2022/05/26 14:20:23;;;;;;;5.07;3.27;;;;;;;;;;4953168;28;20471;-52
2022/05/26 14:22:49;;;;;;;4.33;3.10;;;;;;;;;;4973126;28;20459;-52
2022/05/26 14:25:20;;;;;;;8.80;2.70;;;;;;;;;;4973248;28;20413;-53
2022/05/26 14:28:04;;;;;;;3.67;2.70;;;;;;;;;;4973034;28;20464;-53
2022/05/26 14:30:30;;;;;;;2.87;2.47;;;;;;;;;;4973187;28;20401;-53
2022/05/26 14:32:56;;;;;;;7.43;3.20;;;;;;;;;;4973024;28;20407;-53
2022/05/26 14:35:22;;;;;;;7.17;3.30;;;;;;;;;;4973080;28;20412;-52
2022/05/26 14:37:48;;;;;;;4.30;3.23;;;;;;;;;;4972998;28;20409;-53
2022/05/26 14:40:14;;;;;;;4.40;2.60;;;;;;;;;;4972851;28;20425;-52
2022/05/26 14:42:42;;;;;;;5.63;3.00;;;;;;;;;;4973050;28;20432;-52
2022/05/26 14:45:10;;;;;;;6.97;4.00;;;;;;;;;;4973042;28;20953;-52
2022/05/26 14:47:37;;;;;;;3.10;2.90;;;;;;;;;;4972898;28;20450;-53
2022/05/26 14:50:04;;;;;;;5.77;3.10;;;;;;;;;;4972492;28;20440;-53
2022/05/26 14:52:30;;;;;;;8.37;3.30;;;;;;;;;;4972986;28;20415;-53
2022/05/26 14:57:41;;;;;;;3.00;2.60;;;;;;;;;;4973251;28;20412;-52
2022/05/26 15:00:08;;;;;;;4.37;3.20;;;;;;;;;;4972557;28;20527;-52
2022/05/26 15:02:37;;;;;;;6.03;3.40;;;;;;;;;;4972810;28;20888;-52
2022/05/26 15:05:05;;;;;;;2.70;2.40;;;;;;;;;;4972794;28;20414;-52
2022/05/26 15:07:31;;;;;;;4.10;2.70;;;;;;;;;;4972841;28;20539;-54
2022/05/26 15:09:57;;;;;;;4.00;2.60;;;;;;;;;;4972407;28;20875;-52
2022/05/26 15:12:23;;;;;;;6.47;3.00;;;;;;;;;;4972873;28;20436;-54
2022/05/26 15:14:49;;;;;;;3.90;2.90;;;;;;;;;;4972759;28;20457;-53
2022/05/26 15:17:17;;;;;;;3.37;3.07;;;;;;;;;;4972604;28;20429;-53
2022/05/26 15:20:03;;;;;;;4.33;2.57;;;;;;;;;;4975664;28;20464;-53
2022/05/26 15:22:31;;;;;;;4.90;3.03;;;;;;;;;;4976582;28;20416;-52
2022/05/26 15:24:58;;;;;;;3.43;2.60;;;;;;;;;;4976267;28;20405;-54
2022/05/26 15:27:25;;;;;;;9.13;3.03;;;;;;;;;;4976162;28;20807;-54
2022/05/26 15:29:51;;;;;;;4.30;2.77;;;;;;;;;;4975855;28;20483;-52
2022/05/26 15:32:36;;;;;;;6.60;2.70;;;;;;;;;;4976283;28;20412;-52
2022/05/26 15:35:03;;;;;;;3.33;2.67;;;;;;;;;;4976081;28;20404;-54
2022/05/26 15:37:30;;;;;;;3.17;2.73;;;;;;;;;;4976189;28;20407;-53
2022/05/26 15:39:56;;;;;;;3.30;3.00;;;;;;;;;;4974570;28;20440;-54